Time;durP1;ratioP1;P1;durP2;ratioP2;P2;SDS_P1;SDS_P2;PMS_P1;PMS_P2;Temp;Humidity;BMP_temperature;BMP_pressure;BME280_temperature;BME280_humidity;BME280_pressure;Samples;Min_cycle;Max_cycle;Signal;HPM_P1;HPM_P2
2022/05/27 00:01:29;;;;;;;3.58;1.20;;;18.50;99.90;;;;;;5039313;28;20021;-57
2022/05/27 00:03:58;;;;;;;3.50;0.80;;;18.50;99.90;;;;;;5038428;28;20030;-58
2022/05/27 00:06:25;;;;;;;5.88;1.13;;;18.50;99.90;;;;;;5039147;28;20037;-54
2022/05/27 00:08:51;;;;;;;2.15;1.13;;;18.50;99.90;;;;;;5039289;28;20096;-56
2022/05/27 00:11:17;;;;;;;3.58;1.10;;;18.50;99.90;;;;;;5039445;28;20056;-57
2022/05/27 00:13:43;;;;;;;5.95;1.38;;;18.40;99.90;;;;;;5037731;28;20030;-58
2022/05/27 00:16:10;;;;;;;2.92;0.93;;;18.40;99.90;;;;;;5037727;28;20079;-56
2022/05/27 00:18:35;;;;;;;3.85;1.13;;;18.40;99.90;;;;;;5039063;28;20021;-56
2022/05/27 00:21:02;;;;;;;2.50;1.15;;;18.40;99.90;;;;;;5037904;28;20025;-58
2022/05/27 00:23:28;;;;;;;5.75;1.20;;;18.40;99.90;;;;;;5038061;28;20029;-58
2022/05/27 00:25:53;;;;;;;4.13;1.17;;;18.40;99.90;;;;;;5037610;28;20032;-55
2022/05/27 00:28:19;;;;;;;1.70;0.75;;;18.40;99.90;;;;;;5037647;28;20029;-57
2022/05/27 00:30:46;;;;;;;2.00;0.88;;;18.40;99.90;;;;;;5039083;28;20049;-58
2022/05/27 00:33:12;;;;;;;2.35;0.90;;;18.40;99.90;;;;;;5037423;28;20108;-58
2022/05/27 00:35:38;;;;;;;1.42;1.00;;;18.40;99.90;;;;;;5037441;28;20018;-58
2022/05/27 00:38:04;;;;;;;13.63;1.33;;;18.40;99.90;;;;;;5038878;28;20057;-54
2022/05/27 00:40:42;;;;;;;6.82;1.20;;;18.40;99.90;;;;;;5039208;28;20028;-56
2022/05/27 00:43:09;;;;;;;10.75;1.35;;;18.40;99.90;;;;;;5043249;28;20025;-56
2022/05/27 00:45:38;;;;;;;5.70;0.95;;;18.40;99.90;;;;;;5040117;28;20040;-57
2022/05/27 00:48:08;;;;;;;4.10;1.17;;;18.40;99.90;;;;;;5038640;28;20022;-58
2022/05/27 00:50:40;;;;;;;3.45;1.17;;;18.30;99.90;;;;;;5035428;28;20064;-51
2022/05/27 00:53:07;;;;;;;5.07;1.13;;;18.30;99.90;;;;;;5036315;28;20021;-58
2022/05/27 00:55:40;;;;;;;2.38;0.95;;;18.20;99.90;;;;;;5034041;28;20032;-57
2022/05/27 00:58:12;;;;;;;3.05;1.08;;;18.20;99.90;;;;;;5035637;28;20013;-56
2022/05/27 01:00:39;;;;;;;2.33;1.20;;;18.20;99.90;;;;;;5035611;28;20123;-56
2022/05/27 01:03:07;;;;;;;1.35;0.80;;;18.20;99.90;;;;;;5034410;28;20048;-53
2022/05/27 01:05:33;;;;;;;2.22;0.82;;;18.20;99.90;;;;;;5035127;28;20100;-53
2022/05/27 01:08:03;;;;;;;4.35;2.05;;;18.20;99.90;;;;;;5035285;28;20092;-58
2022/05/27 01:10:35;;;;;;;1.35;0.80;;;18.20;99.90;;;;;;5035325;28;20373;-54
2022/05/27 01:13:16;;;;;;;5.93;1.02;;;18.10;99.90;;;;;;5035942;28;20037;-54
2022/05/27 01:16:02;;;;;;;8.27;1.02;;;18.20;99.90;;;;;;5034723;28;20162;-54
2022/05/27 01:22:01;;;;;;;5.30;1.08;;;18.20;99.90;;;;;;5035136;28;20391;-53
2022/05/27 01:25:04;;;;;;;3.97;1.23;;;18.20;99.90;;;;;;5033639;28;20021;-54
2022/05/27 01:27:42;;;;;;;1.63;0.80;;;18.20;99.90;;;;;;4974119;28;20065;-55
2022/05/27 01:30:34;;;;;;;7.18;1.33;;;18.20;99.90;;;;;;4974143;28;20030;-54
2022/05/27 01:33:11;;;;;;;3.78;1.15;;;18.20;99.90;;;;;;5011521;28;20033;-56
2022/05/27 01:35:51;;;;;;;4.45;1.10;;;18.10;99.90;;;;;;5033936;28;20025;-57
2022/05/27 01:38:51;;;;;;;1.35;0.88;;;18.10;99.90;;;;;;5034762;28;20018;-58
2022/05/27 01:41:27;;;;;;;2.92;0.98;;;18.10;99.90;;;;;;5033421;28;20017;-55
2022/05/27 01:44:02;;;;;;;3.08;1.30;;;18.10;99.90;;;;;;5034569;28;20072;-57
2022/05/27 01:46:57;;;;;;;7.80;1.27;;;18.00;99.90;;;;;;5033306;28;20082;-57
2022/05/27 01:49:37;;;;;;;2.08;1.00;;;18.10;99.90;;;;;;5022006;28;20412;-57
2022/05/27 01:52:03;;;;;;;3.75;1.00;;;18.10;99.90;;;;;;5035083;28;20030;-55
2022/05/27 01:54:53;;;;;;;8.07;1.00;;;18.10;99.90;;;;;;5033099;28;20022;-58
2022/05/27 01:57:27;;;;;;;5.13;1.40;;;18.00;99.90;;;;;;5033759;28;20053;-56
2022/05/27 02:00:05;;;;;;;4.32;1.60;;;18.00;99.90;;;;;;5033055;28;20032;-53
2022/05/27 02:02:32;;;;;;;1.77;1.02;;;18.00;99.90;;;;;;5033479;28;20057;-58
2022/05/27 02:05:16;;;;;;;4.15;1.17;;;17.90;99.90;;;;;;5032702;28;20386;-53
2022/05/27 02:07:49;;;;;;;3.67;1.20;;;17.90;99.90;;;;;;5034449;28;20365;-56
2022/05/27 02:10:50;;;;;;;3.58;1.02;;;17.90;99.90;;;;;;5033541;28;20078;-52
2022/05/27 02:13:32;;;;;;;0.88;0.70;;;17.80;99.90;;;;;;5033057;28;20053;-56
2022/05/27 02:15:58;;;;;;;4.47;1.00;;;17.70;99.90;;;;;;5034023;28;20022;-56
2022/05/27 02:18:54;;;;;;;2.67;1.10;;;17.70;99.90;;;;;;5034012;28;20028;-57
2022/05/27 02:21:19;;;;;;;2.05;1.05;;;17.70;99.90;;;;;;5033994;28;20033;-56
2022/05/27 02:24:08;;;;;;;2.22;0.88;;;17.80;99.90;;;;;;5034111;28;20021;-57
2022/05/27 02:26:39;;;;;;;6.45;1.63;;;17.70;99.90;;;;;;5033739;28;20025;-54
2022/05/27 02:29:13;;;;;;;2.92;1.30;;;17.80;99.90;;;;;;5032603;28;20030;-56
2022/05/27 02:31:45;;;;;;;5.35;1.67;;;17.80;99.90;;;;;;5032408;28;20034;-58
2022/05/27 02:37:17;;;;;;;2.90;1.00;;;17.80;99.90;;;;;;5033983;28;19915;-54
2022/05/27 02:39:43;;;;;;;1.80;1.00;;;17.80;99.90;;;;;;5034034;28;20072;-57
2022/05/27 02:42:16;;;;;;;3.58;1.27;;;17.70;99.90;;;;;;5032264;28;20029;-51
2022/05/27 02:44:50;;;;;;;2.13;1.05;;;17.80;99.90;;;;;;5033183;28;20048;-52
2022/05/27 02:47:52;;;;;;;5.07;1.10;;;17.80;99.90;;;;;;5033740;28;20031;-57
2022/05/27 02:50:47;;;;;;;2.55;0.90;;;17.80;99.90;;;;;;5001959;28;20109;-57
2022/05/27 02:53:32;;;;;;;4.57;1.40;;;17.90;99.90;;;;;;5006367;28;20049;-57
2022/05/27 02:56:11;;;;;;;3.90;1.83;;;17.90;99.90;;;;;;5032853;28;20067;-56
2022/05/27 02:58:37;;;;;;;3.58;1.55;;;17.90;99.90;;;;;;5031977;28;20396;-58
2022/05/27 03:01:03;;;;;;;5.50;1.52;;;17.90;99.90;;;;;;5033237;28;20025;-58
2022/05/27 03:03:29;;;;;;;5.32;1.58;;;17.90;99.90;;;;;;5031910;28;20025;-56
2022/05/27 03:05:55;;;;;;;2.03;1.45;;;17.90;99.90;;;;;;5031626;28;20032;-55
2022/05/27 03:08:32;;;;;;;2.88;1.15;;;17.90;99.90;;;;;;5033406;28;20377;-58
2022/05/27 03:11:11;;;;;;;3.67;1.42;;;17.90;99.90;;;;;;5033813;28;20480;-58
2022/05/27 03:13:55;;;;;;;3.42;1.20;;;17.80;99.90;;;;;;5035049;28;20033;-56
2022/05/27 03:16:32;;;;;;;5.35;1.23;;;17.80;99.90;;;;;;5032849;28;20029;-52
2022/05/27 03:19:09;;;;;;;3.75;1.15;;;17.80;99.90;;;;;;5032950;28;20028;-57
2022/05/27 03:21:52;;;;;;;6.28;1.08;;;17.80;99.90;;;;;;5031923;28;20142;-56
2022/05/27 03:24:34;;;;;;;2.13;0.80;;;17.70;99.90;;;;;;5031539;28;20030;-56
2022/05/27 03:27:25;;;;;;;3.22;1.13;;;17.70;99.90;;;;;;5031630;28;20059;-55
2022/05/27 03:30:05;;;;;;;4.53;1.50;;;17.70;99.90;;;;;;5022269;28;20029;-55
2022/05/27 03:32:41;;;;;;;6.00;1.00;;;17.60;99.90;;;;;;5033232;28;20091;-54
2022/05/27 03:35:37;;;;;;;3.85;1.23;;;17.70;99.90;;;;;;5031492;28;20022;-57
2022/05/27 03:38:16;;;;;;;11.98;1.50;;;17.60;99.90;;;;;;5031294;28;20029;-54
2022/05/27 03:40:49;;;;;;;2.25;1.13;;;17.60;99.90;;;;;;5032943;28;20411;-56
2022/05/27 03:43:16;;;;;;;1.65;0.93;;;17.60;99.90;;;;;;5032897;28;20052;-55
2022/05/27 03:45:57;;;;;;;3.97;1.10;;;17.70;99.90;;;;;;5032799;28;20096;-57
2022/05/27 03:48:24;;;;;;;6.53;1.15;;;17.60;99.90;;;;;;5032765;28;20036;-56
2022/05/27 03:50:54;;;;;;;4.10;1.30;;;17.60;99.90;;;;;;5031391;28;20464;-51
2022/05/27 03:53:20;;;;;;;1.58;1.10;;;17.60;99.90;;;;;;5032730;28;20018;-57
2022/05/27 03:55:45;;;;;;;4.25;1.33;;;17.60;99.90;;;;;;5032584;28;20029;-56
2022/05/27 03:58:12;;;;;;;9.50;1.60;;;17.60;99.90;;;;;;5031396;28;20152;-56
2022/05/27 04:00:39;;;;;;;1.65;1.00;;;17.70;99.90;;;;;;5032742;28;20160;-52
2022/05/27 04:03:05;;;;;;;1.20;0.80;;;17.60;99.90;;;;;;5031263;28;20022;-55
2022/05/27 04:05:31;;;;;;;4.65;1.73;;;17.60;99.90;;;;;;5032347;28;20034;-58
2022/05/27 04:07:56;;;;;;;3.58;1.10;;;17.60;99.90;;;;;;5031189;28;20029;-56
2022/05/27 04:10:22;;;;;;;4.72;1.02;;;17.60;99.90;;;;;;5032245;28;20056;-58
2022/05/27 04:12:48;;;;;;;2.92;1.00;;;17.70;99.90;;;;;;5031207;28;20031;-51
2022/05/27 04:15:14;;;;;;;6.50;0.90;;;17.60;99.90;;;;;;5032284;28;20030;-56
2022/05/27 04:17:41;;;;;;;1.50;1.10;;;17.60;99.90;;;;;;5031196;28;20017;-58
2022/05/27 04:20:08;;;;;;;4.47;1.52;;;17.60;99.90;;;;;;5032465;28;20351;-53
2022/05/27 04:22:34;;;;;;;1.92;0.88;;;17.60;99.90;;;;;;5032320;28;20034;-56
2022/05/27 04:25:01;;;;;;;6.45;1.50;;;17.60;99.90;;;;;;5034370;28;20095;-56
2022/05/27 04:27:28;;;;;;;2.95;0.90;;;17.60;99.90;;;;;;5034834;28;20021;-56
2022/05/27 04:29:54;;;;;;;2.25;1.45;;;17.60;99.90;;;;;;5036349;28;20029;-58
2022/05/27 04:32:21;;;;;;;1.55;1.10;;;17.60;99.90;;;;;;5036360;28;20094;-55
2022/05/27 04:34:48;;;;;;;3.20;1.00;;;17.60;99.90;;;;;;5035187;28;20103;-55
2022/05/27 04:37:14;;;;;;;3.17;1.00;;;17.60;99.90;;;;;;5036401;28;20047;-58
2022/05/27 04:39:40;;;;;;;6.22;0.93;;;17.60;99.90;;;;;;5035334;28;20025;-58
2022/05/27 04:42:06;;;;;;;5.72;0.90;;;17.70;99.90;;;;;;5036383;28;20128;-56
2022/05/27 04:44:33;;;;;;;2.88;0.90;;;17.70;99.90;;;;;;5035029;28;20056;-57
2022/05/27 04:46:59;;;;;;;2.75;0.57;;;17.70;99.90;;;;;;5035880;28;20026;-57
2022/05/27 04:52:08;;;;;;;2.17;1.33;;;17.70;99.90;;;;;;5036576;28;20032;-57
2022/05/27 04:54:34;;;;;;;1.90;0.93;;;17.80;99.90;;;;;;5036088;28;20422;-54
2022/05/27 04:57:00;;;;;;;2.83;0.75;;;17.80;99.90;;;;;;5036062;28;20076;-51
2022/05/27 04:59:26;;;;;;;2.75;1.00;;;17.80;99.90;;;;;;5034807;28;20021;-52
2022/05/27 05:01:51;;;;;;;2.60;0.70;;;17.80;99.90;;;;;;5035947;28;20044;-52
2022/05/27 05:04:17;;;;;;;1.45;1.05;;;17.70;99.90;;;;;;5035596;28;20044;-51
2022/05/27 05:06:44;;;;;;;2.13;0.80;;;17.80;99.90;;;;;;5036134;28;20037;-56
2022/05/27 05:09:10;;;;;;;1.80;0.85;;;17.70;99.90;;;;;;5034948;28;20427;-54
2022/05/27 05:11:37;;;;;;;1.67;0.93;;;17.80;99.90;;;;;;5035801;28;20021;-53
2022/05/27 05:14:02;;;;;;;6.85;1.23;;;17.80;99.90;;;;;;5034430;28;20068;-52
2022/05/27 05:16:28;;;;;;;2.65;0.85;;;17.80;99.90;;;;;;5035731;28;20025;-54
2022/05/27 05:18:54;;;;;;;1.27;0.70;;;17.80;99.90;;;;;;5034536;28;20392;-56
2022/05/27 05:21:19;;;;;;;3.15;0.80;;;17.80;99.90;;;;;;5035630;28;20525;-54
2022/05/27 05:23:45;;;;;;;2.92;0.75;;;17.80;99.90;;;;;;5034593;28;20076;-57
2022/05/27 05:26:11;;;;;;;4.15;0.90;;;17.80;99.90;;;;;;5034692;28;20029;-53
2022/05/27 05:28:37;;;;;;;2.75;0.70;;;17.90;99.90;;;;;;5035468;28;20025;-55
2022/05/27 05:31:03;;;;;;;1.17;0.63;;;17.90;99.90;;;;;;5035390;28;20036;-54
2022/05/27 05:33:29;;;;;;;3.40;0.98;;;17.90;99.90;;;;;;5035326;28;20049;-58
2022/05/27 05:35:54;;;;;;;2.92;0.90;;;17.90;99.90;;;;;;5034627;28;20115;-55
2022/05/27 05:38:20;;;;;;;1.63;0.50;;;17.90;99.90;;;;;;5034466;28;20032;-53
2022/05/27 05:40:46;;;;;;;3.10;0.80;;;17.90;99.90;;;;;;5033970;28;20032;-57
2022/05/27 05:43:13;;;;;;;3.25;1.05;;;17.90;99.90;;;;;;5035266;28;20037;-51
2022/05/27 05:45:40;;;;;;;2.70;0.90;;;17.90;99.90;;;;;;5033924;28;20044;-57
2022/05/27 05:48:06;;;;;;;2.88;0.80;;;17.80;99.90;;;;;;5035360;28;20029;-53
2022/05/27 05:50:33;;;;;;;2.42;0.85;;;17.90;99.90;;;;;;5033995;28;20025;-55
2022/05/27 05:52:59;;;;;;;2.33;0.90;;;17.90;99.90;;;;;;5033845;28;20026;-56
2022/05/27 05:55:25;;;;;;;1.88;1.25;;;17.90;99.90;;;;;;5034957;28;20048;-56
2022/05/27 05:57:51;;;;;;;4.22;0.70;;;17.90;99.90;;;;;;5034016;28;20032;-56
2022/05/27 06:00:20;;;;;;;1.38;0.77;;;17.90;99.90;;;;;;5034892;28;20018;-56
2022/05/27 06:02:46;;;;;;;1.23;0.80;;;17.90;99.90;;;;;;5033989;28;20028;-53
2022/05/27 06:05:12;;;;;;;1.40;0.95;;;17.90;99.90;;;;;;5033790;28;20037;-55
2022/05/27 06:07:38;;;;;;;2.42;1.20;;;17.90;99.90;;;;;;5035097;28;20033;-56
2022/05/27 06:10:04;;;;;;;3.45;0.90;;;17.90;99.90;;;;;;5033551;28;20064;-52
2022/05/27 06:12:36;;;;;;;3.35;0.95;;;18.00;99.90;;;;;;5034619;28;20022;-57
2022/05/27 06:15:05;;;;;;;3.53;2.00;;;18.00;99.90;;;;;;5034878;28;20480;-52
2022/05/27 06:17:30;;;;;;;4.15;1.75;;;17.90;99.90;;;;;;5034932;28;20032;-56
2022/05/27 06:19:56;;;;;;;2.90;1.27;;;17.90;99.90;;;;;;5033379;28;20022;-54
2022/05/27 06:22:23;;;;;;;1.40;1.00;;;17.90;99.90;;;;;;5034111;28;20044;-54
2022/05/27 06:24:48;;;;;;;1.52;0.93;;;17.90;99.90;;;;;;5034335;28;20025;-51
2022/05/27 06:27:14;;;;;;;0.70;0.70;;;18.00;99.90;;;;;;5034299;28;20075;-53
2022/05/27 06:35:08;;;;;;;2.13;0.70;;;18.10;99.90;;;;;;5034568;28;20052;-58
2022/05/27 06:37:34;;;;;;;1.58;0.70;;;18.10;99.90;;;;;;5032961;28;20025;-56
2022/05/27 06:40:00;;;;;;;0.70;0.70;;;18.20;99.90;;;;;;5034200;28;20030;-55
2022/05/27 06:42:27;;;;;;;1.17;0.63;;;18.20;99.90;;;;;;5033244;28;20029;-53
2022/05/27 06:44:53;;;;;;;1.02;0.85;;;18.10;99.90;;;;;;5034149;28;20052;-54
2022/05/27 06:47:18;;;;;;;4.30;1.42;;;18.10;99.90;;;;;;5032189;28;20022;-56
2022/05/27 06:49:44;;;;;;;3.25;0.70;;;18.20;99.90;;;;;;5032409;28;20029;-55
2022/05/27 06:52:11;;;;;;;1.85;0.60;;;18.20;99.90;;;;;;5032955;28;20033;-52
2022/05/27 06:54:36;;;;;;;2.80;0.70;;;18.20;99.90;;;;;;5033178;28;20148;-57
2022/05/27 06:57:05;;;;;;;1.60;0.60;;;18.20;99.90;;;;;;5032916;28;20041;-58
2022/05/27 06:59:32;;;;;;;1.02;0.68;;;18.40;99.90;;;;;;5032909;28;20021;-57
2022/05/27 07:02:07;;;;;;;2.97;0.63;;;18.50;99.90;;;;;;5033761;28;20026;-57
2022/05/27 07:04:32;;;;;;;2.58;0.68;;;18.50;99.90;;;;;;5033751;28;20056;-58
2022/05/27 07:06:59;;;;;;;0.70;0.60;;;18.50;99.90;;;;;;5032519;28;20025;-59
2022/05/27 07:09:25;;;;;;;1.73;0.60;;;18.50;99.90;;;;;;5032391;28;20029;-58
2022/05/27 07:11:53;;;;;;;1.15;0.70;;;18.50;99.90;;;;;;5032315;28;20056;-59
2022/05/27 07:14:19;;;;;;;2.00;0.68;;;18.60;99.90;;;;;;5033567;28;20075;-58
2022/05/27 07:16:46;;;;;;;1.70;1.13;;;18.60;99.90;;;;;;5032426;28;20041;-58
2022/05/27 07:19:13;;;;;;;0.60;0.60;;;18.70;99.90;;;;;;5032654;28;20025;-55
2022/05/27 07:21:41;;;;;;;1.05;0.60;;;18.70;99.90;;;;;;5032361;28;20068;-57
2022/05/27 07:24:09;;;;;;;1.20;0.65;;;18.90;99.90;;;;;;5032515;28;20090;-55
2022/05/27 07:26:36;;;;;;;1.42;1.25;;;19.00;99.90;;;;;;5033598;28;20049;-52
2022/05/27 07:29:03;;;;;;;0.57;0.57;;;18.90;99.90;;;;;;5032209;28;20112;-54
2022/05/27 07:31:29;;;;;;;1.58;0.70;;;18.90;99.90;;;;;;5033551;28;20018;-58
2022/05/27 07:33:56;;;;;;;1.85;1.00;;;19.00;99.90;;;;;;5033267;28;20143;-52
2022/05/27 07:36:21;;;;;;;1.55;0.63;;;19.00;99.90;;;;;;5033687;28;20037;-55
2022/05/27 07:38:51;;;;;;;0.70;0.45;;;19.00;99.90;;;;;;5033327;28;20052;-53
2022/05/27 07:41:16;;;;;;;2.22;1.13;;;19.00;99.90;;;;;;5033331;28;20013;-52
2022/05/27 07:43:42;;;;;;;4.55;0.80;;;19.00;99.90;;;;;;5033320;28;20030;-55
2022/05/27 07:46:08;;;;;;;2.53;0.77;;;18.90;99.90;;;;;;5031876;28;20028;-52
2022/05/27 07:48:33;;;;;;;2.72;0.85;;;19.00;99.90;;;;;;5033550;28;20167;-52
2022/05/27 07:50:59;;;;;;;1.90;0.70;;;18.90;99.90;;;;;;5031994;28;20053;-53
2022/05/27 07:53:25;;;;;;;0.82;0.80;;;18.90;99.90;;;;;;5033328;28;20075;-55
2022/05/27 07:55:50;;;;;;;1.58;0.88;;;18.90;99.90;;;;;;5031869;28;20029;-53
2022/05/27 07:58:16;;;;;;;0.75;0.68;;;19.00;99.90;;;;;;5031971;28;20030;-54
2022/05/27 08:00:42;;;;;;;1.25;0.75;;;19.30;99.90;;;;;;5036790;28;20041;-54
2022/05/27 08:03:07;;;;;;;0.95;0.60;;;19.40;99.90;;;;;;5036250;28;20032;-52
2022/05/27 08:05:35;;;;;;;1.05;0.73;;;19.60;99.90;;;;;;5036037;28;20048;-54
2022/05/27 08:08:02;;;;;;;4.88;0.60;;;19.80;99.90;;;;;;5037098;28;20025;-58
2022/05/27 08:10:31;;;;;;;2.45;0.52;;;19.90;99.90;;;;;;5036631;28;20057;-57
2022/05/27 08:12:57;;;;;;;0.60;0.50;;;19.80;99.90;;;;;;5035617;28;20025;-58
2022/05/27 08:15:23;;;;;;;3.00;0.65;;;19.80;99.90;;;;;;5035664;28;20029;-58
2022/05/27 08:17:49;;;;;;;2.20;0.90;;;19.70;99.90;;;;;;5036857;28;20018;-58
2022/05/27 08:20:18;;;;;;;0.82;0.47;;;19.70;99.90;;;;;;5035670;28;20025;-58
2022/05/27 08:22:49;;;;;;;2.55;0.50;;;19.50;99.90;;;;;;5037298;28;20479;-58
2022/05/27 08:25:15;;;;;;;1.77;0.60;;;19.80;99.90;;;;;;5036320;28;20028;-55
2022/05/27 08:27:41;;;;;;;0.52;0.50;;;20.00;99.90;;;;;;5036725;28;20033;-52
2022/05/27 08:30:10;;;;;;;0.70;0.70;;;20.20;99.90;;;;;;5037014;28;20017;-52
2022/05/27 08:32:36;;;;;;;0.57;0.32;;;20.20;99.90;;;;;;5035311;28;20052;-53
2022/05/27 08:38:02;;;;;;;2.53;0.40;;;19.90;99.90;;;;;;5036665;28;20067;-55
2022/05/27 08:41:04;;;;;;;1.90;0.30;;;19.90;99.90;;;;;;5037101;28;20025;-54
2022/05/27 08:43:33;;;;;;;0.35;0.30;;;19.80;99.90;;;;;;5036129;28;20033;-58
2022/05/27 08:46:23;;;;;;;1.48;0.38;;;19.70;99.90;;;;;;5034970;28;20029;-58
2022/05/27 08:48:54;;;;;;;0.35;0.35;;;19.60;99.90;;;;;;5035306;28;20498;-58
2022/05/27 08:51:25;;;;;;;1.05;0.40;;;19.80;99.90;;;;;;5035147;28;20032;-53
2022/05/27 08:53:57;;;;;;;1.87;0.40;;;19.90;99.90;;;;;;5036156;28;20120;-52
2022/05/27 08:59:27;;;;;;;0.95;0.40;;;19.90;99.90;;;;;;5036263;28;20032;-52
2022/05/27 09:02:08;;;;;;;0.52;0.50;;;19.80;99.90;;;;;;5035694;28;20030;-53
2022/05/27 09:04:43;;;;;;;2.42;0.40;;;19.90;99.90;;;;;;5034593;28;20061;-55
2022/05/27 09:07:41;;;;;;;2.15;0.40;;;19.90;99.90;;;;;;5036349;28;20021;-55
2022/05/27 09:10:13;;;;;;;0.60;0.35;;;19.90;99.90;;;;;;5034499;28;20022;-53
2022/05/27 09:12:50;;;;;;;;;;;20.10;99.90;;;;;;5034284;28;20089;-54
2022/05/27 09:15:26;;;;;;;1.15;0.40;;;20.20;99.90;;;;;;5036187;28;20355;-52
2022/05/27 09:18:13;;;;;;;2.92;0.60;;;20.30;99.90;;;;;;5034546;28;20063;-59
2022/05/27 09:20:54;;;;;;;0.57;0.47;;;20.30;99.90;;;;;;5035342;28;20029;-55
2022/05/27 09:23:25;;;;;;;2.20;0.65;;;20.30;99.90;;;;;;5035378;28;20108;-57
2022/05/27 09:26:00;;;;;;;1.73;0.40;;;20.50;99.90;;;;;;5034462;28;20026;-53
2022/05/27 09:28:34;;;;;;;0.43;0.40;;;20.80;99.90;;;;;;5035313;28;20080;-54
2022/05/27 09:31:02;;;;;;;2.53;0.52;;;21.40;99.90;;;;;;5035114;28;20029;-53
2022/05/27 09:33:30;;;;;;;2.22;0.55;;;21.40;99.90;;;;;;5034144;28;20076;-51
2022/05/27 09:36:14;;;;;;;0.20;0.20;;;21.60;99.90;;;;;;5035376;28;20022;-56
2022/05/27 09:38:50;;;;;;;3.28;0.30;;;21.70;99.90;;;;;;5034268;28;20068;-54
2022/05/27 09:41:25;;;;;;;0.35;0.30;;;21.60;99.90;;;;;;5035008;28;20025;-53
2022/05/27 09:44:06;;;;;;;2.63;0.35;;;21.60;99.90;;;;;;5035226;28;20025;-50
2022/05/27 09:46:32;;;;;;;;;;;21.30;99.90;;;;;;5035528;28;20029;-51
2022/05/27 09:48:59;;;;;;;0.95;0.60;;;21.00;99.90;;;;;;5034015;28;19904;-59
2022/05/27 09:51:29;;;;;;;0.40;0.40;;;20.80;99.90;;;;;;5033926;28;20030;-52
2022/05/27 09:54:00;;;;;;;0.32;0.32;;;20.70;99.90;;;;;;5035011;28;20029;-53
2022/05/27 09:59:54;;;;;;;0.85;0.50;;;20.50;99.90;;;;;;5035229;28;20036;-51
2022/05/27 10:02:37;;;;;;;1.48;0.85;;;20.60;99.90;;;;;;5033743;28;20048;-51
2022/05/27 10:05:14;;;;;;;1.35;0.50;;;20.70;99.90;;;;;;5033874;28;20037;-52
2022/05/27 10:07:43;;;;;;;0.88;0.50;;;20.60;99.90;;;;;;5034861;28;20025;-58
2022/05/27 10:10:28;;;;;;;4.32;0.90;;;20.70;99.90;;;;;;5034751;28;20032;-53
2022/05/27 10:13:12;;;;;;;3.05;0.50;;;20.90;99.90;;;;;;5034937;28;20079;-51
2022/05/27 10:15:39;;;;;;;1.55;0.70;;;21.00;99.90;;;;;;5034657;28;20052;-53
2022/05/27 10:18:24;;;;;;;1.77;0.75;;;21.20;99.90;;;;;;5033785;28;20033;-54
2022/05/27 10:21:02;;;;;;;2.10;0.82;;;21.30;99.90;;;;;;5033973;28;20108;-52
2022/05/27 10:23:38;;;;;;;1.27;0.60;;;21.40;99.90;;;;;;5033081;28;20389;-58
2022/05/27 10:26:30;;;;;;;1.05;0.70;;;21.60;99.90;;;;;;5034413;28;20423;-57
2022/05/27 10:29:10;;;;;;;0.60;0.60;;;21.70;99.90;;;;;;5034238;28;20028;-53
2022/05/27 10:31:36;;;;;;;1.63;0.80;;;21.90;99.90;;;;;;5034506;28;20028;-51
2022/05/27 10:34:03;;;;;;;1.80;0.85;;;22.00;99.90;;;;;;5033202;28;20123;-55
2022/05/27 10:36:28;;;;;;;0.85;0.50;;;21.90;99.90;;;;;;5034049;28;20022;-56
2022/05/27 10:39:04;;;;;;;0.85;0.50;;;22.10;99.90;;;;;;5033019;28;20031;-55
2022/05/27 10:41:38;;;;;;;2.55;0.90;;;22.00;99.90;;;;;;5034206;28;20022;-56
2022/05/27 10:44:33;;;;;;;0.85;0.57;;;22.00;99.90;;;;;;5034053;28;20025;-55
2022/05/27 10:46:59;;;;;;;0.50;0.40;;;22.30;99.90;;;;;;5034066;28;20057;-58
2022/05/27 10:49:45;;;;;;;1.90;0.45;;;22.50;99.90;;;;;;5034017;28;20049;-57
2022/05/27 10:52:17;;;;;;;0.68;0.45;;;22.80;99.90;;;;;;5032668;28;20059;-56
2022/05/27 10:54:46;;;;;;;0.63;0.50;;;22.90;99.90;;;;;;5033901;28;20013;-56
2022/05/27 11:03:29;;;;;;;1.25;0.85;;;23.50;99.90;;;;;;5033831;28;20040;-58
2022/05/27 11:05:58;;;;;;;1.92;0.90;;;23.50;99.90;;;;;;5032201;28;20061;-57
2022/05/27 11:08:24;;;;;;;2.15;0.90;;;23.50;99.90;;;;;;5033945;28;20022;-58
2022/05/27 11:11:08;;;;;;;4.22;1.00;;;23.40;99.90;;;;;;5032354;28;20075;-57
2022/05/27 11:17:04;;;;;;;3.42;1.10;;;23.40;99.90;;;;;;5034191;28;20037;-56
2022/05/27 11:20:27;;;;;;;2.58;0.80;;;23.20;99.90;;;;;;5033840;28;20022;-59
2022/05/27 11:23:14;;;;;;;3.33;1.00;;;23.30;99.90;;;;;;4956587;28;20061;-53
2022/05/27 11:25:54;;;;;;;2.15;0.85;;;23.20;99.90;;;;;;4956412;28;20041;-54
2022/05/27 11:28:26;;;;;;;3.28;1.42;;;23.10;99.90;;;;;;5016051;28;20044;-54
2022/05/27 11:31:40;;;;;;;5.22;0.88;;;22.90;99.90;;;;;;5033393;28;20499;-54
2022/05/27 11:34:30;;;;;;;2.67;0.93;;;22.80;99.90;;;;;;5032692;28;20025;-55
2022/05/27 11:37:22;;;;;;;4.30;1.17;;;22.70;99.90;;;;;;5032098;28;20048;-56
2022/05/27 11:40:15;;;;;;;2.10;1.20;;;22.60;99.90;;;;;;5032925;28;20017;-54
2022/05/27 11:43:12;;;;;;;2.42;1.25;;;22.40;99.90;;;;;;5033585;28;20028;-58
2022/05/27 11:49:25;;;;;;;2.33;1.10;;;22.40;99.90;;;;;;5033616;28;20025;-51
2022/05/27 11:51:59;;;;;;;3.57;1.20;;;22.40;99.90;;;;;;5031850;28;20116;-54
2022/05/27 11:54:51;;;;;;;1.63;1.20;;;22.20;99.90;;;;;;5031958;28;20061;-54
2022/05/27 11:57:16;;;;;;;5.65;1.20;;;22.40;99.90;;;;;;5031929;28;20079;-54
2022/05/27 11:59:49;;;;;;;3.25;1.13;;;22.60;99.90;;;;;;5033777;28;20022;-57
2022/05/27 12:02:37;;;;;;;3.47;1.10;;;22.90;99.90;;;;;;5033183;28;20503;-55
2022/05/27 12:05:11;;;;;;;3.45;1.52;;;22.90;99.90;;;;;;5032990;28;20041;-58
2022/05/27 12:08:01;;;;;;;2.78;1.13;;;22.80;99.90;;;;;;5033078;28;20037;-56
2022/05/27 12:10:46;;;;;;;2.85;1.10;;;22.70;99.90;;;;;;5033152;28;20100;-58
2022/05/27 12:13:19;;;;;;;4.70;1.30;;;22.80;99.90;;;;;;5032988;28;20033;-55
2022/05/27 12:16:27;;;;;;;2.13;1.40;;;22.90;99.90;;;;;;5033240;28;20021;-55
2022/05/27 12:19:07;;;;;;;2.42;1.00;;;22.80;99.90;;;;;;5030232;28;20156;-54
2022/05/27 12:21:41;;;;;;;3.08;1.20;;;22.80;99.90;;;;;;5032947;28;20128;-56
2022/05/27 12:24:11;;;;;;;3.95;1.40;;;22.60;99.90;;;;;;5031993;28;20468;-55
2022/05/27 12:26:37;;;;;;;1.40;1.20;;;22.50;99.90;;;;;;5032930;28;20052;-53
2022/05/27 12:29:11;;;;;;;4.72;1.02;;;22.40;99.90;;;;;;5033146;28;20021;-52
2022/05/27 12:31:38;;;;;;;4.15;1.20;;;22.30;99.90;;;;;;5032863;28;20075;-56
2022/05/27 12:34:40;;;;;;;4.72;1.48;;;22.30;99.90;;;;;;5031418;28;20506;-53
2022/05/27 12:37:28;;;;;;;3.10;1.50;;;22.20;99.90;;;;;;5022743;28;20053;-55
2022/05/27 12:40:20;;;;;;;2.17;1.30;;;22.20;99.90;;;;;;5031787;28;20030;-54
2022/05/27 12:42:54;;;;;;;2.17;1.25;;;22.30;99.90;;;;;;5031428;28;20053;-56
2022/05/27 12:45:47;;;;;;;1.92;1.30;;;22.40;99.90;;;;;;5033907;28;20028;-53
2022/05/27 12:48:38;;;;;;;2.60;1.55;;;22.40;99.90;;;;;;5035153;28;20030;-59
2022/05/27 12:51:16;;;;;;;5.30;1.40;;;22.40;99.90;;;;;;5036388;28;20057;-55
2022/05/27 12:53:58;;;;;;;5.13;1.85;;;22.50;99.90;;;;;;5036104;28;20021;-57
2022/05/27 13:02:33;;;;;;;3.78;1.60;;;22.60;99.90;;;;;;5036145;28;20107;-57
2022/05/27 13:05:01;;;;;;;4.78;1.52;;;22.70;99.90;;;;;;5036172;28;20039;-57
2022/05/27 13:07:29;;;;;;;5.47;1.80;;;22.70;99.90;;;;;;5035983;28;20131;-60
2022/05/27 13:09:56;;;;;;;2.15;1.60;;;22.70;99.90;;;;;;5036224;28;20498;-59
2022/05/27 13:12:50;;;;;;;5.93;1.75;;;22.60;99.90;;;;;;5034833;28;20119;-59
2022/05/27 13:15:30;;;;;;;3.20;1.67;;;22.60;99.90;;;;;;5036415;28;20448;-60
2022/05/27 13:18:11;;;;;;;2.58;1.60;;;22.50;99.90;;;;;;5035705;28;20022;-60
2022/05/27 13:20:48;;;;;;;7.30;2.20;;;22.50;99.90;;;;;;5034464;28;20024;-59
2022/05/27 13:23:15;;;;;;;2.70;1.40;;;22.50;99.90;;;;;;5035683;28;20030;-60
2022/05/27 13:25:57;;;;;;;4.15;1.77;;;22.60;99.90;;;;;;5035536;28;20025;-60
2022/05/27 13:28:33;;;;;;;2.17;1.45;;;22.70;99.90;;;;;;5034394;28;20032;-60
2022/05/27 13:31:02;;;;;;;3.97;1.75;;;22.70;99.90;;;;;;5034494;28;20055;-60
2022/05/27 13:33:32;;;;;;;6.50;1.65;;;22.80;99.90;;;;;;5034398;28;20086;-60
2022/05/27 13:36:01;;;;;;;2.67;1.85;;;23.00;99.90;;;;;;5034050;28;20083;-59
2022/05/27 13:38:34;;;;;;;1.90;1.55;;;23.00;99.90;;;;;;5034123;28;20120;-60
2022/05/27 13:41:01;;;;;;;2.72;2.00;;;23.00;99.90;;;;;;5034102;28;20022;-59
2022/05/27 13:43:36;;;;;;;3.03;1.65;;;22.90;99.90;;;;;;5035384;28;20036;-60
2022/05/27 13:46:01;;;;;;;5.60;1.80;;;22.90;99.90;;;;;;5035210;28;20119;-60
2022/05/27 13:48:32;;;;;;;4.40;2.08;;;22.80;99.90;;;;;;5033909;28;20480;-59
2022/05/27 13:51:04;;;;;;;2.28;1.80;;;22.70;99.90;;;;;;5034772;28;20048;-61
2022/05/27 13:53:29;;;;;;;5.93;2.10;;;22.60;99.90;;;;;;5035055;28;20032;-60
2022/05/27 13:56:17;;;;;;;8.32;1.98;;;22.50;99.90;;;;;;5034899;28;20025;-59
2022/05/27 13:59:01;;;;;;;4.55;1.83;;;22.40;99.90;;;;;;5034525;28;20100;-58
2022/05/27 14:01:47;;;;;;;3.35;2.15;;;22.40;99.90;;;;;;5033808;28;20029;-55